createdAt,value
2019-05-28T00:00:26.251Z,14.30
2019-05-28T00:03:15.399Z,14.27
2019-05-28T00:05:46.707Z,14.23
2019-05-28T00:08:18.214Z,14.24
2019-05-28T00:10:49.504Z,14.22
2019-05-28T00:13:21.112Z,14.18
2019-05-28T00:15:52.426Z,14.29
2019-05-28T00:18:23.706Z,14.30
2019-05-28T00:20:54.949Z,14.20
2019-05-28T00:23:26.220Z,14.06
2019-05-28T00:25:57.548Z,14.03
2019-05-28T00:28:28.972Z,14.05
2019-05-28T00:31:00.290Z,13.98
2019-05-28T00:33:31.664Z,13.94
2019-05-28T00:36:03.092Z,13.88
2019-05-28T00:38:34.426Z,13.88
2019-05-28T00:41:07.009Z,13.76
2019-05-28T00:43:38.313Z,13.70
2019-05-28T00:46:09.734Z,13.67
2019-05-28T00:48:41.043Z,13.66
2019-05-28T00:51:12.395Z,13.66
2019-05-28T00:53:43.805Z,13.58
2019-05-28T00:56:15.813Z,13.60
2019-05-28T00:58:47.572Z,13.60
2019-05-28T01:01:19.001Z,13.64
2019-05-28T01:03:50.244Z,13.64
2019-05-28T01:06:21.685Z,13.60
2019-05-28T01:08:52.927Z,13.66
2019-05-28T01:11:24.237Z,13.62
2019-05-28T01:13:55.576Z,13.60
2019-05-28T01:16:26.814Z,13.59
2019-05-28T01:18:58.086Z,13.53
2019-05-28T01:21:29.470Z,13.56
2019-05-28T01:24:00.887Z,13.51
2019-05-28T01:26:32.132Z,13.48
2019-05-28T01:29:03.564Z,13.42
2019-05-28T01:31:34.797Z,13.36
2019-05-28T01:34:06.209Z,13.33
2019-05-28T01:36:37.488Z,13.36
2019-05-28T01:39:08.803Z,13.39
2019-05-28T01:41:40.180Z,13.36
2019-05-28T01:44:11.411Z,13.33
2019-05-28T01:46:42.682Z,13.32
2019-05-28T01:49:14.109Z,13.32
2019-05-28T01:51:45.355Z,13.30
2019-05-28T01:54:16.597Z,13.39
2019-05-28T01:56:48.026Z,13.38
2019-05-28T01:59:19.267Z,13.34
2019-05-28T02:01:50.509Z,13.27
2019-05-28T02:04:21.859Z,13.18
2019-05-28T02:06:53.102Z,13.16
2019-05-28T02:09:24.367Z,13.12
2019-05-28T02:11:55.681Z,13.11
2019-05-28T02:14:26.945Z,13.10
2019-05-28T02:16:58.217Z,13.24
2019-05-28T02:19:29.475Z,13.33
2019-05-28T02:22:00.807Z,13.42
2019-05-28T02:24:32.122Z,13.38
2019-05-28T02:27:03.625Z,13.42
2019-05-28T02:29:34.944Z,13.45
2019-05-28T02:32:06.357Z,13.36
2019-05-28T02:34:41.124Z,13.25
2019-05-28T02:37:12.431Z,13.26
2019-05-28T02:39:43.704Z,13.33
2019-05-28T02:42:15.093Z,13.25
2019-05-28T02:44:46.520Z,13.04
2019-05-28T02:47:17.840Z,12.93
2019-05-28T02:49:49.116Z,12.97
2019-05-28T02:52:21.135Z,12.90
2019-05-28T02:54:52.780Z,12.79
2019-05-28T02:57:25.705Z,12.95
2019-05-28T03:00:00.383Z,12.98
2019-05-28T03:02:33.750Z,12.82
2019-05-28T03:05:06.495Z,12.82
2019-05-28T03:07:41.977Z,12.80
2019-05-28T03:10:13.533Z,12.77
2019-05-28T03:12:44.904Z,12.78
2019-05-28T03:15:16.207Z,12.83
2019-05-28T03:17:49.145Z,12.76
2019-05-28T03:20:21.502Z,12.75
2019-05-28T03:22:53.548Z,12.76
2019-05-28T03:25:25.346Z,12.86
2019-05-28T03:27:56.617Z,12.87
2019-05-28T03:30:28.026Z,12.78
2019-05-28T03:32:59.446Z,12.79
2019-05-28T03:35:31.966Z,12.73
2019-05-28T03:38:04.180Z,12.74
2019-05-28T03:40:47.056Z,12.70
2019-05-28T03:43:18.536Z,12.67
2019-05-28T03:45:49.848Z,12.71
2019-05-28T03:48:21.329Z,12.74
2019-05-28T03:50:52.595Z,12.70
2019-05-28T03:53:23.887Z,12.69
2019-05-28T03:55:55.130Z,12.66
2019-05-28T03:58:26.443Z,12.70
2019-05-28T04:00:57.716Z,12.72
2019-05-28T04:03:30.652Z,12.72
2019-05-28T04:06:01.933Z,12.71
2019-05-28T04:08:34.931Z,12.67
2019-05-28T04:11:14.914Z,12.73
2019-05-28T04:14:07.278Z,12.71
2019-05-28T04:16:38.691Z,12.72
2019-05-28T04:19:10.177Z,12.75
2019-05-28T04:21:43.149Z,12.75
2019-05-28T04:24:14.656Z,12.80
2019-05-28T04:26:46.065Z,12.80
2019-05-28T04:29:17.928Z,12.82
2019-05-28T04:31:49.296Z,12.77
2019-05-28T04:34:20.778Z,12.77
2019-05-28T04:36:52.217Z,12.77
2019-05-28T04:39:23.702Z,12.80
2019-05-28T04:41:54.979Z,12.85
2019-05-28T04:44:26.759Z,12.82
2019-05-28T04:46:58.062Z,12.83
2019-05-28T04:49:30.426Z,12.87
2019-05-28T04:52:01.842Z,12.85
2019-05-28T04:54:33.187Z,12.85
2019-05-28T04:57:04.530Z,12.86
2019-05-28T04:59:35.973Z,12.87
2019-05-28T05:02:07.391Z,12.93
2019-05-28T05:04:38.920Z,13.03
2019-05-28T05:07:10.343Z,13.05
2019-05-28T05:09:41.638Z,13.09
2019-05-28T05:12:13.016Z,13.12
2019-05-28T05:14:44.419Z,13.16
2019-05-28T05:17:15.698Z,13.18
2019-05-28T05:19:47.074Z,13.21
2019-05-28T05:22:18.363Z,13.24
2019-05-28T05:24:49.727Z,13.31
2019-05-28T05:27:21.219Z,13.34
2019-05-28T05:29:52.561Z,13.33
2019-05-28T05:32:27.661Z,13.37
2019-05-28T05:34:57.150Z,13.41
2019-05-28T05:37:28.601Z,13.45
2019-05-28T05:40:00.148Z,13.48
2019-05-28T05:42:31.618Z,13.53
2019-05-28T05:45:08.130Z,13.60
2019-05-28T05:47:40.197Z,13.68
2019-05-28T05:50:11.957Z,13.75
2019-05-28T05:52:45.745Z,13.84
2019-05-28T05:55:17.725Z,13.93
2019-05-28T05:57:49.998Z,14.04
2019-05-28T06:00:23.054Z,14.18
2019-05-28T06:02:54.741Z,14.15
2019-05-28T06:05:26.331Z,14.20
2019-05-28T06:07:57.786Z,14.17
2019-05-28T06:10:33.128Z,14.22
2019-05-28T06:13:05.085Z,14.17
2019-05-28T06:15:41.210Z,14.24
2019-05-28T06:18:12.921Z,14.27
2019-05-28T06:20:44.396Z,14.32
2019-05-28T06:23:16.084Z,14.28
2019-05-28T06:25:47.521Z,14.32
2019-05-28T06:28:18.940Z,14.33
2019-05-28T06:30:50.336Z,14.26
2019-05-28T06:33:21.796Z,14.40
2019-05-28T06:35:53.485Z,14.41
2019-05-28T06:38:26.580Z,14.47
2019-05-28T06:41:01.682Z,14.52
2019-05-28T06:43:34.100Z,14.52
2019-05-28T06:46:06.204Z,14.55
2019-05-28T06:48:37.665Z,14.60
2019-05-28T06:51:09.120Z,14.39
2019-05-28T06:53:41.726Z,14.47
2019-05-28T06:56:13.086Z,14.48
2019-05-28T06:58:44.405Z,14.60
2019-05-28T07:01:15.732Z,14.77
2019-05-28T07:03:47.107Z,14.81
2019-05-28T07:06:18.574Z,14.80
2019-05-28T07:08:50.021Z,14.93
2019-05-28T07:11:21.572Z,14.82
2019-05-28T07:13:53.961Z,15.10
2019-05-28T07:16:26.942Z,15.22
2019-05-28T07:18:58.313Z,15.24
2019-05-28T07:21:30.840Z,15.07
2019-05-28T07:24:05.138Z,15.21
2019-05-28T07:26:37.781Z,15.16
2019-05-28T07:29:09.193Z,15.25
2019-05-28T07:31:46.526Z,15.28
2019-05-28T07:34:30.293Z,15.39
2019-05-28T07:36:55.374Z,15.49
2019-05-28T07:39:26.892Z,15.37
2019-05-28T07:41:58.220Z,15.10
2019-05-28T07:44:29.589Z,15.63
2019-05-28T07:47:01.043Z,15.62
2019-05-28T07:49:32.395Z,15.63
2019-05-28T07:52:03.853Z,16.02
2019-05-28T07:54:35.145Z,15.57
2019-05-28T07:57:06.887Z,15.76
2019-05-28T07:59:39.044Z,15.98
2019-05-28T08:02:10.458Z,15.84
2019-05-28T08:04:47.221Z,15.86
2019-05-28T08:07:15.535Z,15.94
2019-05-28T08:09:48.939Z,15.81
2019-05-28T08:12:20.810Z,16.00
2019-05-28T08:14:52.382Z,16.41
2019-05-28T08:17:23.856Z,16.47
2019-05-28T08:19:55.339Z,16.19
2019-05-28T08:22:40.851Z,16.42
2019-05-28T08:25:01.104Z,16.49
2019-05-28T08:27:32.532Z,16.74
2019-05-28T08:30:05.237Z,16.40
2019-05-28T08:32:36.825Z,16.25
2019-05-28T08:35:09.256Z,16.52
2019-05-28T08:37:52.792Z,16.57
2019-05-28T08:47:36.937Z,16.73
2019-05-28T08:50:49.729Z,16.84
2019-05-28T08:53:22.820Z,16.70
2019-05-28T08:55:54.779Z,16.84
2019-05-28T08:58:26.344Z,16.63
2019-05-28T09:00:58.782Z,16.88
2019-05-28T09:03:30.081Z,17.13
2019-05-28T09:06:01.542Z,16.82
2019-05-28T09:08:39.263Z,16.71
2019-05-28T09:11:05.950Z,16.73
2019-05-28T09:13:37.460Z,16.97
2019-05-28T09:16:08.893Z,16.87
2019-05-28T09:18:40.186Z,16.94
2019-05-28T09:21:11.670Z,16.73
2019-05-28T09:23:42.948Z,16.69
2019-05-28T09:26:14.402Z,16.64
2019-05-28T09:28:45.938Z,16.99
2019-05-28T09:31:17.499Z,17.19
2019-05-28T09:33:48.924Z,17.60
2019-05-28T09:36:21.819Z,17.49
2019-05-28T09:38:53.133Z,17.74
2019-05-28T09:41:24.628Z,17.40
2019-05-28T09:43:56.173Z,17.25
2019-05-28T09:46:27.613Z,17.17
2019-05-28T09:48:58.958Z,17.36
2019-05-28T09:51:30.479Z,17.42
2019-05-28T09:54:01.889Z,17.93
2019-05-28T09:56:33.466Z,17.82
2019-05-28T09:59:04.922Z,17.27
2019-05-28T10:01:37.380Z,17.51
2019-05-28T10:04:08.939Z,17.66
2019-05-28T10:06:41.754Z,18.17
2019-05-28T10:09:14.290Z,18.66
2019-05-28T10:11:45.540Z,18.73
2019-05-28T10:14:16.866Z,18.59
2019-05-28T10:16:48.098Z,18.49
2019-05-28T10:19:19.386Z,18.65
2019-05-28T10:21:50.609Z,19.53
2019-05-28T10:24:21.884Z,19.40
2019-05-28T10:26:53.188Z,20.18
2019-05-28T10:29:24.592Z,20.14
2019-05-28T10:31:55.827Z,19.50
2019-05-28T10:34:27.271Z,18.47
2019-05-28T10:36:58.544Z,17.84
2019-05-28T10:39:29.914Z,18.85
2019-05-28T10:42:01.240Z,19.57
2019-05-28T10:44:32.464Z,19.09
2019-05-28T10:47:04.868Z,19.92
2019-05-28T10:49:36.173Z,19.97
2019-05-28T10:52:07.699Z,18.91
2019-05-28T10:54:38.995Z,19.44
2019-05-28T10:57:10.508Z,19.42
2019-05-28T10:59:41.741Z,19.24
2019-05-28T11:02:13.040Z,19.04
2019-05-28T11:04:44.317Z,19.14
2019-05-28T11:07:15.775Z,18.41
2019-05-28T11:09:48.216Z,18.68
2019-05-28T11:12:20.681Z,18.71
2019-05-28T11:14:52.004Z,19.67
2019-05-28T11:17:23.515Z,18.18
2019-05-28T11:19:54.868Z,18.12
2019-05-28T11:22:26.321Z,17.85
2019-05-28T11:24:57.815Z,18.18
2019-05-28T11:27:29.302Z,18.92
2019-05-28T11:30:01.150Z,18.85
2019-05-28T11:32:32.585Z,19.06
2019-05-28T11:35:05.034Z,18.50
2019-05-28T11:37:36.289Z,18.66
2019-05-28T11:40:12.445Z,19.50
2019-05-28T11:42:43.828Z,19.67
2019-05-28T11:45:17.896Z,19.86
2019-05-28T11:47:51.499Z,20.08
2019-05-28T11:50:23.197Z,20.26
2019-05-28T11:53:04.437Z,20.02
2019-05-28T11:55:35.673Z,20.29
2019-05-28T11:58:07.155Z,20.63
2019-05-28T12:00:39.013Z,20.48
2019-05-28T12:03:11.385Z,20.32
2019-05-28T12:05:42.768Z,20.67
2019-05-28T12:08:14.024Z,20.52
2019-05-28T12:10:45.322Z,18.71
2019-05-28T12:13:16.670Z,19.28
2019-05-28T12:15:47.897Z,19.37
2019-05-28T12:18:19.513Z,19.99
2019-05-28T12:20:50.893Z,20.56
2019-05-28T12:23:22.141Z,20.28
2019-05-28T12:25:53.370Z,20.94
2019-05-28T12:28:37.161Z,20.64
2019-05-28T12:30:57.560Z,21.23
2019-05-28T12:33:38.678Z,20.96
2019-05-28T12:36:11.054Z,21.52
2019-05-28T12:38:42.609Z,20.53
2019-05-28T12:41:13.931Z,20.96
2019-05-28T12:43:45.291Z,21.51
2019-05-28T12:46:16.856Z,21.59
2019-05-28T12:48:48.121Z,20.87
2019-05-28T12:51:19.379Z,20.41
2019-05-28T12:53:51.607Z,19.97
2019-05-28T12:56:23.165Z,20.08
2019-05-28T12:58:58.243Z,20.00
2019-05-28T13:01:29.500Z,19.93
2019-05-28T13:04:00.835Z,21.03
2019-05-28T13:06:32.128Z,20.56
2019-05-28T13:09:05.194Z,19.69
2019-05-28T13:11:36.612Z,20.23
2019-05-28T13:14:08.866Z,19.65
2019-05-28T13:16:42.076Z,20.29
2019-05-28T13:19:13.542Z,20.09
2019-05-28T13:21:44.770Z,20.26
2019-05-28T13:24:16.328Z,20.04
2019-05-28T13:26:49.518Z,20.56
2019-05-28T13:29:22.719Z,20.31
2019-05-28T13:31:55.757Z,19.52
2019-05-28T13:34:27.079Z,19.17
2019-05-28T13:36:58.456Z,19.70
2019-05-28T13:39:29.772Z,20.35
2019-05-28T13:42:01.173Z,20.60
2019-05-28T13:44:32.529Z,20.61
2019-05-28T13:47:03.761Z,20.67
2019-05-28T13:49:35.091Z,20.57
2019-05-28T13:52:12.102Z,20.42
2019-05-28T13:54:39.499Z,20.36
2019-05-28T13:57:10.810Z,20.83
2019-05-28T13:59:42.156Z,20.45
2019-05-28T14:02:13.534Z,20.48
2019-05-28T14:04:44.857Z,20.74
2019-05-28T14:07:16.091Z,20.77
2019-05-28T14:09:47.380Z,21.09
2019-05-28T14:12:18.744Z,21.44
2019-05-28T14:14:50.020Z,21.37
2019-05-28T14:17:21.305Z,21.00
2019-05-28T14:19:52.841Z,21.11
2019-05-28T14:22:33.430Z,21.23
2019-05-28T14:24:57.291Z,21.46
2019-05-28T14:27:28.556Z,21.20
2019-05-28T14:29:59.793Z,21.03
2019-05-28T14:32:31.179Z,21.31
2019-05-28T14:35:02.465Z,21.12
2019-05-28T14:37:33.755Z,20.71
2019-05-28T14:40:07.072Z,20.93
2019-05-28T14:42:38.580Z,21.03
2019-05-28T14:45:10.757Z,20.96
2019-05-28T14:47:42.196Z,20.43
2019-05-28T14:50:13.860Z,21.33
2019-05-28T14:52:45.369Z,20.04
2019-05-28T14:55:18.633Z,19.48
2019-05-28T14:57:50.133Z,19.33
2019-05-28T15:00:23.632Z,19.30
2019-05-28T15:02:54.925Z,19.26
2019-05-28T15:05:30.074Z,19.27
2019-05-28T15:08:01.299Z,18.94
2019-05-28T15:10:32.686Z,18.64
2019-05-28T15:13:04.210Z,18.61
2019-05-28T15:15:36.620Z,18.89
2019-05-28T15:18:08.046Z,18.82
2019-05-28T15:20:39.418Z,18.95
2019-05-28T15:23:11.163Z,19.66
2019-05-28T15:25:42.473Z,20.41
2019-05-28T15:28:13.979Z,19.77
2019-05-28T15:30:45.283Z,19.21
2019-05-28T15:33:16.743Z,18.98
2019-05-28T15:35:48.258Z,19.49
2019-05-28T15:38:19.637Z,20.07
2019-05-28T15:40:51.139Z,19.74
2019-05-28T15:43:24.296Z,19.24
2019-05-28T15:45:55.848Z,18.77
2019-05-28T15:48:27.408Z,18.84
2019-05-28T15:50:58.932Z,19.18
2019-05-28T15:53:30.230Z,19.64
2019-05-28T15:56:01.638Z,18.92
2019-05-28T15:58:33.948Z,19.18
2019-05-28T16:01:05.410Z,19.71
2019-05-28T16:03:36.725Z,20.47
2019-05-28T16:06:08.237Z,20.40
2019-05-28T16:08:39.552Z,19.93
2019-05-28T16:11:10.895Z,19.58
2019-05-28T16:13:42.262Z,20.12
2019-05-28T16:16:15.055Z,19.61
2019-05-28T16:18:46.424Z,19.79
2019-05-28T16:21:18.081Z,20.43
2019-05-28T16:23:53.854Z,19.66
2019-05-28T16:26:25.409Z,20.12
2019-05-28T16:28:56.758Z,20.57
2019-05-28T16:31:29.095Z,20.47
2019-05-28T16:34:00.642Z,19.69
2019-05-28T16:36:31.960Z,19.89
2019-05-28T16:39:03.499Z,21.21
2019-05-28T16:41:35.720Z,20.21
2019-05-28T16:44:08.027Z,19.24
2019-05-28T16:46:48.165Z,19.72
2019-05-28T16:49:19.646Z,20.74
2019-05-28T16:51:50.979Z,20.71
2019-05-28T16:54:22.262Z,20.53
2019-05-28T16:56:53.731Z,20.39
2019-05-28T16:59:25.023Z,19.97
2019-05-28T17:01:56.307Z,20.17
2019-05-28T17:04:27.894Z,20.33
2019-05-28T17:06:59.519Z,20.73
2019-05-28T17:09:30.926Z,20.48
2019-05-28T17:12:02.504Z,19.99
2019-05-28T17:14:34.826Z,19.92
2019-05-28T17:17:06.386Z,20.24
2019-05-28T17:19:38.073Z,20.32
2019-05-28T17:22:09.402Z,20.18
2019-05-28T17:24:40.941Z,20.65
2019-05-28T17:27:12.302Z,19.65
2019-05-28T17:29:43.689Z,21.24
2019-05-28T17:32:15.148Z,20.91
2019-05-28T17:34:46.558Z,19.75
2019-05-28T17:37:17.913Z,20.35
2019-05-28T17:39:49.407Z,19.69
2019-05-28T17:42:20.760Z,19.85
2019-05-28T17:44:52.298Z,19.02
2019-05-28T17:47:27.666Z,19.00
2019-05-28T17:50:00.045Z,18.88
2019-05-28T17:52:31.550Z,19.21
2019-05-28T17:55:07.657Z,19.19
2019-05-28T17:57:45.079Z,19.07
2019-05-28T18:00:17.281Z,18.96
2019-05-28T18:02:48.984Z,18.99
2019-05-28T18:05:20.590Z,18.81
2019-05-28T18:07:51.907Z,18.66
2019-05-28T18:10:23.735Z,18.08
2019-05-28T18:12:55.121Z,17.80
2019-05-28T18:15:26.531Z,17.58
2019-05-28T18:17:57.852Z,17.68
2019-05-28T18:20:29.400Z,17.44
2019-05-28T18:23:01.225Z,17.21
2019-05-28T18:25:32.620Z,17.34
2019-05-28T18:28:04.128Z,17.08
2019-05-28T18:30:35.518Z,17.08
2019-05-28T18:33:06.844Z,16.79
2019-05-28T18:35:38.220Z,16.80
2019-05-28T18:38:09.683Z,16.72
2019-05-28T18:40:41.020Z,16.75
2019-05-28T18:43:12.350Z,16.75
2019-05-28T18:45:43.859Z,16.53
2019-05-28T18:48:15.994Z,16.49
2019-05-28T18:50:47.722Z,16.39
2019-05-28T18:53:19.218Z,16.33
2019-05-28T18:55:53.714Z,16.20
2019-05-28T18:58:25.095Z,16.20
2019-05-28T19:00:56.562Z,16.14
2019-05-28T19:03:32.865Z,16.14
2019-05-28T19:06:04.357Z,15.97
2019-05-28T19:08:46.111Z,15.90
2019-05-28T19:11:17.472Z,15.83
2019-05-28T19:13:48.777Z,15.73
2019-05-28T19:16:20.252Z,15.64
2019-05-28T19:18:51.576Z,15.61
2019-05-28T19:21:23.130Z,15.62
2019-05-28T19:23:54.495Z,15.45
2019-05-28T19:26:26.812Z,15.41
2019-05-28T19:28:58.997Z,15.42
2019-05-28T19:31:30.478Z,15.53
2019-05-28T19:34:02.118Z,15.23
2019-05-28T19:36:34.049Z,14.99
2019-05-28T19:39:08.080Z,14.94
2019-05-28T19:41:53.814Z,15.12
2019-05-28T19:44:14.386Z,14.94
2019-05-28T19:46:45.681Z,15.02
2019-05-28T19:49:18.359Z,15.02
2019-05-28T19:51:49.973Z,14.86
2019-05-28T19:54:38.178Z,14.88
2019-05-28T19:57:03.243Z,14.82
2019-05-28T19:59:34.761Z,14.79
2019-05-28T20:02:06.457Z,14.82
2019-05-28T20:04:38.114Z,14.75
2019-05-28T20:07:09.528Z,14.62
2019-05-28T20:09:41.021Z,14.58
2019-05-28T20:12:13.309Z,14.54
2019-05-28T20:14:44.679Z,14.51
2019-05-28T20:17:16.027Z,14.46
2019-05-28T20:19:47.733Z,14.44
2019-05-28T20:22:19.348Z,14.39
2019-05-28T20:24:52.605Z,14.31
2019-05-28T20:27:24.226Z,14.38
2019-05-28T20:29:56.205Z,14.48
2019-05-28T20:32:27.937Z,14.39
2019-05-28T20:35:01.336Z,14.44
2019-05-28T20:37:32.943Z,14.67
2019-05-28T20:40:05.962Z,14.47
2019-05-28T20:42:38.358Z,14.39
2019-05-28T20:45:12.244Z,14.35
2019-05-28T20:47:43.688Z,14.21
2019-05-28T20:50:16.637Z,14.24
2019-05-28T20:52:47.900Z,14.21
2019-05-28T20:55:19.993Z,14.20
2019-05-28T20:57:51.483Z,14.17
2019-05-28T21:00:22.943Z,14.14
2019-05-28T21:02:54.461Z,14.09
2019-05-28T21:05:25.757Z,13.98
2019-05-28T21:07:58.297Z,13.99
2019-05-28T21:10:30.773Z,13.97
2019-05-28T21:13:02.181Z,13.94
2019-05-28T21:15:33.586Z,13.95
2019-05-28T21:18:04.993Z,13.85
2019-05-28T21:20:36.521Z,13.86
2019-05-28T21:23:08.241Z,13.76
2019-05-28T21:25:39.543Z,13.69
2019-05-28T21:28:10.855Z,13.66
2019-05-28T21:30:42.143Z,13.63
2019-05-28T21:33:13.413Z,13.55
2019-05-28T21:35:44.679Z,13.51
2019-05-28T21:38:15.986Z,13.49
2019-05-28T21:40:47.268Z,13.48
2019-05-28T21:43:18.653Z,13.45
2019-05-28T21:45:50.272Z,13.33
2019-05-28T21:48:21.604Z,13.32
2019-05-28T21:50:54.533Z,13.23
2019-05-28T21:53:27.076Z,13.33
2019-05-28T21:55:59.342Z,13.14
2019-05-28T21:58:30.698Z,13.13
2019-05-28T22:01:12.654Z,13.14
2019-05-28T22:03:44.166Z,13.28
2019-05-28T22:06:16.689Z,13.14
2019-05-28T22:08:49.062Z,13.02
2019-05-28T22:11:20.350Z,13.08
2019-05-28T22:13:51.697Z,12.98
2019-05-28T22:16:23.097Z,13.01
2019-05-28T22:18:54.364Z,13.01
2019-05-28T22:21:25.751Z,12.90
2019-05-28T22:23:58.298Z,12.92
2019-05-28T22:26:29.695Z,12.84
2019-05-28T22:29:01.626Z,12.82
2019-05-28T22:31:33.156Z,12.81
2019-05-28T22:34:05.265Z,12.86
2019-05-28T22:36:36.734Z,12.77
2019-05-28T22:39:09.135Z,12.78
2019-05-28T22:41:42.715Z,12.69
2019-05-28T22:44:14.094Z,12.80
2019-05-28T22:46:45.435Z,12.75
2019-05-28T22:49:16.821Z,12.89
2019-05-28T22:51:48.166Z,12.78
2019-05-28T22:54:19.437Z,12.81
2019-05-28T22:56:50.751Z,12.75
2019-05-28T22:59:22.036Z,12.87
2019-05-28T23:01:53.381Z,12.70
2019-05-28T23:04:24.711Z,12.72
2019-05-28T23:06:56.013Z,12.67
2019-05-28T23:09:27.344Z,12.55
2019-05-28T23:11:59.636Z,12.49
2019-05-28T23:14:30.980Z,12.54
2019-05-28T23:17:04.159Z,12.43
2019-05-28T23:19:36.500Z,12.38
2019-05-28T23:22:08.988Z,12.39
2019-05-28T23:24:40.345Z,12.41
2019-05-28T23:27:13.499Z,12.39
2019-05-28T23:29:44.799Z,12.38
2019-05-28T23:32:16.092Z,12.27
2019-05-28T23:34:47.391Z,12.28
2019-05-28T23:37:18.813Z,12.18
2019-05-28T23:39:50.418Z,12.25
2019-05-28T23:42:21.736Z,12.15
2019-05-28T23:44:53.121Z,12.25
2019-05-28T23:47:24.527Z,12.24
2019-05-28T23:49:55.912Z,12.16
2019-05-28T23:52:27.314Z,12.15
2019-05-28T23:54:58.671Z,12.09
2019-05-28T23:57:30.068Z,12.16
